sensor_id;sensor_type;location;lat;lon;timestamp;pressure;altitude;pressure_sealevel;temperature;humidity
9839;BME280;4958;48.150;11.506;2022-08-19T00:01:55;95149.66;;;21.73;82.66
9839;BME280;4958;48.150;11.506;2022-08-19T00:04:25;95160.13;;;21.73;82.77
9839;BME280;4958;48.150;11.506;2022-08-19T00:06:52;95163.25;;;21.64;82.74
9839;BME280;4958;48.150;11.506;2022-08-19T00:09:20;95160.78;;;21.43;84.17
9839;BME280;4958;48.150;11.506;2022-08-19T00:11:47;95159.50;;;21.50;84.00
9839;BME280;4958;48.150;11.506;2022-08-19T00:14:15;95167.16;;;21.62;83.25
9839;BME280;4958;48.150;11.506;2022-08-19T00:16:44;95166.88;;;21.58;83.27
9839;BME280;4958;48.150;11.506;2022-08-19T00:19:11;95162.16;;;21.60;83.28
9839;BME280;4958;48.150;11.506;2022-08-19T00:21:39;95146.69;;;21.59;83.20
9839;BME280;4958;48.150;11.506;2022-08-19T00:24:06;95132.06;;;21.68;82.88
9839;BME280;4958;48.150;11.506;2022-08-19T00:26:34;95132.34;;;21.71;82.84
9839;BME280;4958;48.150;11.506;2022-08-19T00:29:01;95121.34;;;21.75;82.42
9839;BME280;4958;48.150;11.506;2022-08-19T00:31:27;95118.19;;;21.78;82.11
9839;BME280;4958;48.150;11.506;2022-08-19T00:33:53;95124.75;;;21.75;82.93
9839;BME280;4958;48.150;11.506;2022-08-19T00:36:20;95122.66;;;21.77;82.49
9839;BME280;4958;48.150;11.506;2022-08-19T00:38:49;95114.78;;;21.77;82.74
9839;BME280;4958;48.150;11.506;2022-08-19T00:41:19;95119.81;;;21.84;81.85
9839;BME280;4958;48.150;11.506;2022-08-19T00:43:57;95120.34;;;21.86;82.63
9839;BME280;4958;48.150;11.506;2022-08-19T00:46:24;95119.31;;;21.92;81.69
9839;BME280;4958;48.150;11.506;2022-08-19T00:48:50;95111.94;;;21.94;81.69
9839;BME280;4958;48.150;11.506;2022-08-19T00:51:17;95111.97;;;21.99;81.80
9839;BME280;4958;48.150;11.506;2022-08-19T00:53:43;95089.16;;;21.94;81.79
9839;BME280;4958;48.150;11.506;2022-08-19T00:56:11;95077.88;;;21.94;81.44
9839;BME280;4958;48.150;11.506;2022-08-19T00:58:38;95081.56;;;21.93;81.57
9839;BME280;4958;48.150;11.506;2022-08-19T01:01:05;95087.06;;;21.86;81.93
9839;BME280;4958;48.150;11.506;2022-08-19T01:03:33;95089.66;;;21.81;82.25
9839;BME280;4958;48.150;11.506;2022-08-19T01:05:59;95095.16;;;21.80;82.10
9839;BME280;4958;48.150;11.506;2022-08-19T01:08:26;95109.81;;;21.81;82.16
9839;BME280;4958;48.150;11.506;2022-08-19T01:10:55;95101.72;;;21.82;82.02
9839;BME280;4958;48.150;11.506;2022-08-19T01:13:27;95090.94;;;21.79;81.87
9839;BME280;4958;48.150;11.506;2022-08-19T01:15:56;95074.97;;;21.80;81.46
9839;BME280;4958;48.150;11.506;2022-08-19T01:18:25;95085.97;;;21.72;83.15
9839;BME280;4958;48.150;11.506;2022-08-19T01:20:54;95088.56;;;21.67;82.79
9839;BME280;4958;48.150;11.506;2022-08-19T01:23:24;95094.31;;;21.64;82.92
9839;BME280;4958;48.150;11.506;2022-08-19T01:26:09;95087.75;;;21.61;82.85
9839;BME280;4958;48.150;11.506;2022-08-19T01:28:37;95090.34;;;21.56;82.70
9839;BME280;4958;48.150;11.506;2022-08-19T01:31:04;95087.72;;;21.56;82.81
9839;BME280;4958;48.150;11.506;2022-08-19T01:33:30;95099.53;;;21.54;83.08
9839;BME280;4958;48.150;11.506;2022-08-19T01:36:04;95109.22;;;21.53;83.22
9839;BME280;4958;48.150;11.506;2022-08-19T01:38:35;95111.78;;;21.43;84.03
9839;BME280;4958;48.150;11.506;2022-08-19T01:41:02;95113.88;;;21.41;84.12
9839;BME280;4958;48.150;11.506;2022-08-19T01:43:29;95118.06;;;21.42;83.86
9839;BME280;4958;48.150;11.506;2022-08-19T01:45:55;95112.88;;;21.47;83.63
9839;BME280;4958;48.150;11.506;2022-08-19T01:48:22;95122.03;;;21.50;83.48
9839;BME280;4958;48.150;11.506;2022-08-19T01:50:48;95132.81;;;21.53;83.44
9839;BME280;4958;48.150;11.506;2022-08-19T01:53:15;95133.59;;;21.54;83.09
9839;BME280;4958;48.150;11.506;2022-08-19T01:55:43;95134.59;;;21.48;83.51
9839;BME280;4958;48.150;11.506;2022-08-19T01:58:13;95144.47;;;21.30;84.65
9839;BME280;4958;48.150;11.506;2022-08-19T02:00:40;95145.53;;;21.29;84.83
9839;BME280;4958;48.150;11.506;2022-08-19T02:03:07;95133.19;;;21.25;85.18
9839;BME280;4958;48.150;11.506;2022-08-19T02:05:35;95128.28;;;21.33;84.65
9839;BME280;4958;48.150;11.506;2022-08-19T02:08:02;95128.00;;;21.40;84.04
9839;BME280;4958;48.150;11.506;2022-08-19T02:10:28;95122.53;;;21.42;83.98
9839;BME280;4958;48.150;11.506;2022-08-19T02:12:56;95135.66;;;21.47;83.93
9839;BME280;4958;48.150;11.506;2022-08-19T02:15:22;95131.75;;;21.49;83.54
9839;BME280;4958;48.150;11.506;2022-08-19T02:17:51;95152.13;;;21.42;83.93
9839;BME280;4958;48.150;11.506;2022-08-19T02:20:17;95149.00;;;21.45;83.60
9839;BME280;4958;48.150;11.506;2022-08-19T02:22:44;95149.31;;;21.54;82.94
9839;BME280;4958;48.150;11.506;2022-08-19T02:25:11;95156.91;;;21.50;83.47
9839;BME280;4958;48.150;11.506;2022-08-19T02:27:38;95154.03;;;21.57;83.10
9839;BME280;4958;48.150;11.506;2022-08-19T02:30:10;95151.66;;;21.50;83.19
9839;BME280;4958;48.150;11.506;2022-08-19T02:32:38;95160.34;;;21.61;82.60
9839;BME280;4958;48.150;11.506;2022-08-19T02:35:05;95156.44;;;21.68;82.52
9839;BME280;4958;48.150;11.506;2022-08-19T02:37:32;95154.06;;;21.67;82.19
9839;BME280;4958;48.150;11.506;2022-08-19T02:40:24;95146.22;;;21.67;82.25
9839;BME280;4958;48.150;11.506;2022-08-19T02:42:51;95143.34;;;21.68;81.69
9839;BME280;4958;48.150;11.506;2022-08-19T02:45:19;95137.06;;;21.69;81.95
9839;BME280;4958;48.150;11.506;2022-08-19T02:47:45;95120.81;;;21.67;82.27
9839;BME280;4958;48.150;11.506;2022-08-19T02:50:12;95105.91;;;21.73;81.64
9839;BME280;4958;48.150;11.506;2022-08-19T02:52:39;95083.34;;;21.67;82.41
9839;BME280;4958;48.150;11.506;2022-08-19T02:55:07;95084.59;;;21.59;82.31
9839;BME280;4958;48.150;11.506;2022-08-19T02:57:34;95085.91;;;21.52;82.91
9839;BME280;4958;48.150;11.506;2022-08-19T03:00:02;95085.88;;;21.47;83.14
9839;BME280;4958;48.150;11.506;2022-08-19T03:02:31;95083.53;;;21.50;82.76
9839;BME280;4958;48.150;11.506;2022-08-19T03:04:57;95085.41;;;21.55;82.57
9839;BME280;4958;48.150;11.506;2022-08-19T03:07:24;95083.78;;;21.49;82.71
9839;BME280;4958;48.150;11.506;2022-08-19T03:09:50;95081.44;;;21.47;82.88
9839;BME280;4958;48.150;11.506;2022-08-19T03:12:16;95091.41;;;21.50;82.64
9839;BME280;4958;48.150;11.506;2022-08-19T03:14:43;95092.97;;;21.51;82.39
9839;BME280;4958;48.150;11.506;2022-08-19T03:17:10;95098.47;;;21.50;82.11
9839;BME280;4958;48.150;11.506;2022-08-19T03:19:39;95096.09;;;21.48;82.22
9839;BME280;4958;48.150;11.506;2022-08-19T03:22:05;95086.41;;;21.49;82.17
9839;BME280;4958;48.150;11.506;2022-08-19T03:24:33;95104.25;;;21.52;82.24
9839;BME280;4958;48.150;11.506;2022-08-19T03:26:59;95125.75;;;21.54;81.82
9839;BME280;4958;48.150;11.506;2022-08-19T03:29:29;95130.69;;;21.55;82.12
9839;BME280;4958;48.150;11.506;2022-08-19T03:31:56;95141.19;;;21.55;81.67
9839;BME280;4958;48.150;11.506;2022-08-19T03:34:25;95133.59;;;21.59;81.44
9839;BME280;4958;48.150;11.506;2022-08-19T03:36:54;95119.97;;;21.57;81.70
9839;BME280;4958;48.150;11.506;2022-08-19T03:39:21;95127.31;;;21.60;81.45
9839;BME280;4958;48.150;11.506;2022-08-19T03:41:50;95123.91;;;21.59;81.62
9839;BME280;4958;48.150;11.506;2022-08-19T03:44:18;95119.72;;;21.63;81.37
9839;BME280;4958;48.150;11.506;2022-08-19T03:46:46;95118.44;;;21.66;81.42
9839;BME280;4958;48.150;11.506;2022-08-19T03:49:13;95112.13;;;21.62;81.59
9839;BME280;4958;48.150;11.506;2022-08-19T03:51:41;95113.97;;;21.61;81.48
9839;BME280;4958;48.150;11.506;2022-08-19T03:54:12;95112.34;;;21.50;81.96
9839;BME280;4958;48.150;11.506;2022-08-19T03:56:40;95117.34;;;21.52;81.73
9839;BME280;4958;48.150;11.506;2022-08-19T03:59:09;95113.94;;;21.56;81.61
9839;BME280;4958;48.150;11.506;2022-08-19T04:01:36;95107.91;;;21.56;81.79
9839;BME280;4958;48.150;11.506;2022-08-19T04:04:03;95112.06;;;21.47;82.67
9839;BME280;4958;48.150;11.506;2022-08-19T04:06:31;95105.53;;;21.49;82.14
9839;BME280;4958;48.150;11.506;2022-08-19T04:08:59;95101.09;;;21.50;82.51
9839;BME280;4958;48.150;11.506;2022-08-19T04:11:31;95105.03;;;21.52;82.16
9839;BME280;4958;48.150;11.506;2022-08-19T04:13:58;95107.88;;;21.46;83.40
9839;BME280;4958;48.150;11.506;2022-08-19T04:16:26;95105.00;;;21.47;83.22
9839;BME280;4958;48.150;11.506;2022-08-19T04:18:54;95104.47;;;21.45;83.02
9839;BME280;4958;48.150;11.506;2022-08-19T04:21:24;95108.66;;;21.46;83.32
9839;BME280;4958;48.150;11.506;2022-08-19T04:23:52;95112.06;;;21.47;83.32
9839;BME280;4958;48.150;11.506;2022-08-19T04:26:23;95110.81;;;21.54;82.51
9839;BME280;4958;48.150;11.506;2022-08-19T04:28:51;95114.97;;;21.50;83.30
9839;BME280;4958;48.150;11.506;2022-08-19T04:31:21;95110.03;;;21.54;83.22
9839;BME280;4958;48.150;11.506;2022-08-19T04:33:51;95115.75;;;21.51;83.32
9839;BME280;4958;48.150;11.506;2022-08-19T04:36:19;95125.47;;;21.50;83.30
9839;BME280;4958;48.150;11.506;2022-08-19T04:38:46;95139.09;;;21.52;83.32
9839;BME280;4958;48.150;11.506;2022-08-19T04:41:13;95155.06;;;21.56;82.80
9839;BME280;4958;48.150;11.506;2022-08-19T04:43:59;95147.50;;;21.59;82.62
9839;BME280;4958;48.150;11.506;2022-08-19T04:46:25;95149.34;;;21.64;82.49
9839;BME280;4958;48.150;11.506;2022-08-19T04:48:54;95149.88;;;21.66;82.42
9839;BME280;4958;48.150;11.506;2022-08-19T04:51:22;95151.44;;;21.62;82.34
9839;BME280;4958;48.150;11.506;2022-08-19T04:53:49;95154.88;;;21.67;81.92
9839;BME280;4958;48.150;11.506;2022-08-19T04:56:17;95155.41;;;21.69;81.91
9839;BME280;4958;48.150;11.506;2022-08-19T04:58:45;95157.53;;;21.73;81.45
9839;BME280;4958;48.150;11.506;2022-08-19T05:01:17;95162.47;;;21.69;82.14
9839;BME280;4958;48.150;11.506;2022-08-19T05:03:44;95156.97;;;21.70;81.75
9839;BME280;4958;48.150;11.506;2022-08-19T05:06:12;95165.09;;;21.69;82.07
9839;BME280;4958;48.150;11.506;2022-08-19T05:08:40;95174.75;;;21.63;82.02
9839;BME280;4958;48.150;11.506;2022-08-19T05:11:10;95182.13;;;21.66;82.22
9839;BME280;4958;48.150;11.506;2022-08-19T05:13:37;95187.06;;;21.63;82.07
9839;BME280;4958;48.150;11.506;2022-08-19T05:16:08;95185.00;;;21.65;81.66
9839;BME280;4958;48.150;11.506;2022-08-19T05:18:36;95184.78;;;21.71;81.66
9839;BME280;4958;48.150;11.506;2022-08-19T05:21:21;95168.00;;;21.73;81.35
9839;BME280;4958;48.150;11.506;2022-08-19T05:24:06;95174.81;;;21.74;81.14
9839;BME280;4958;48.150;11.506;2022-08-19T05:26:34;95174.28;;;21.77;81.11
9839;BME280;4958;48.150;11.506;2022-08-19T05:29:00;95168.78;;;21.78;81.17
9839;BME280;4958;48.150;11.506;2022-08-19T05:31:27;95167.22;;;21.72;81.30
9839;BME280;4958;48.150;11.506;2022-08-19T05:33:55;95161.97;;;21.72;81.08
9839;BME280;4958;48.150;11.506;2022-08-19T05:36:23;95156.44;;;21.68;82.52
9839;BME280;4958;48.150;11.506;2022-08-19T05:38:50;95150.44;;;21.73;81.46
9839;BME280;4958;48.150;11.506;2022-08-19T05:41:17;95149.41;;;21.79;81.17
9839;BME280;4958;48.150;11.506;2022-08-19T05:43:44;95151.22;;;21.74;81.69
9839;BME280;4958;48.150;11.506;2022-08-19T05:46:16;95150.69;;;21.71;82.51
9839;BME280;4958;48.150;11.506;2022-08-19T05:48:44;95144.38;;;21.67;82.23
9839;BME280;4958;48.150;11.506;2022-08-19T05:51:12;95141.75;;;21.67;82.36
9839;BME280;4958;48.150;11.506;2022-08-19T05:53:39;95146.50;;;21.70;81.96
9839;BME280;4958;48.150;11.506;2022-08-19T05:56:06;95151.19;;;21.63;82.84
9839;BME280;4958;48.150;11.506;2022-08-19T05:58:33;95153.81;;;21.68;82.47
9839;BME280;4958;48.150;11.506;2022-08-19T06:01:00;95152.78;;;21.69;82.37
9839;BME280;4958;48.150;11.506;2022-08-19T06:03:29;95161.19;;;21.71;82.62
9839;BME280;4958;48.150;11.506;2022-08-19T06:05:57;95161.97;;;21.77;81.78
9839;BME280;4958;48.150;11.506;2022-08-19T06:08:26;95158.81;;;21.70;82.04
9839;BME280;4958;48.150;11.506;2022-08-19T06:10:53;95158.31;;;21.78;81.48
9839;BME280;4958;48.150;11.506;2022-08-19T06:13:19;95158.84;;;21.80;80.94
9839;BME280;4958;48.150;11.506;2022-08-19T06:15:46;95158.84;;;21.80;80.68
9839;BME280;4958;48.150;11.506;2022-08-19T06:18:13;95166.44;;;21.82;80.99
9839;BME280;4958;48.150;11.506;2022-08-19T06:20:40;95170.38;;;21.84;80.52
9839;BME280;4958;48.150;11.506;2022-08-19T06:23:07;95173.81;;;21.85;80.93
9839;BME280;4958;48.150;11.506;2022-08-19T06:25:35;95180.56;;;21.70;81.69
9839;BME280;4958;48.150;11.506;2022-08-19T06:28:02;95177.16;;;21.70;82.16
9839;BME280;4958;48.150;11.506;2022-08-19T06:30:28;95183.16;;;21.65;82.96
9839;BME280;4958;48.150;11.506;2022-08-19T06:32:55;95178.16;;;21.64;83.42
9839;BME280;4958;48.150;11.506;2022-08-19T06:35:21;95175.28;;;21.65;83.38
9839;BME280;4958;48.150;11.506;2022-08-19T06:37:48;95171.34;;;21.63;84.12
9839;BME280;4958;48.150;11.506;2022-08-19T06:40:14;95172.41;;;21.62;84.63
9839;BME280;4958;48.150;11.506;2022-08-19T06:42:42;95179.00;;;21.75;83.16
9839;BME280;4958;48.150;11.506;2022-08-19T06:45:09;95173.75;;;21.75;83.26
9839;BME280;4958;48.150;11.506;2022-08-19T06:47:36;95179.28;;;21.73;84.04
9839;BME280;4958;48.150;11.506;2022-08-19T06:50:03;95177.19;;;21.80;83.24
9839;BME280;4958;48.150;11.506;2022-08-19T06:52:30;95172.47;;;21.82;82.95
9839;BME280;4958;48.150;11.506;2022-08-19T06:55:00;95178.75;;;21.81;83.34
9839;BME280;4958;48.150;11.506;2022-08-19T06:57:27;95176.91;;;21.77;84.02
9839;BME280;4958;48.150;11.506;2022-08-19T06:59:59;95169.84;;;21.82;83.52
9839;BME280;4958;48.150;11.506;2022-08-19T07:02:26;95166.19;;;21.83;83.42
9839;BME280;4958;48.150;11.506;2022-08-19T07:04:52;95161.47;;;21.85;83.63
9839;BME280;4958;48.150;11.506;2022-08-19T07:07:20;95158.59;;;21.82;84.06
9839;BME280;4958;48.150;11.506;2022-08-19T07:09:49;95160.94;;;21.78;84.11
9839;BME280;4958;48.150;11.506;2022-08-19T07:12:15;95155.16;;;21.76;84.59
9839;BME280;4958;48.150;11.506;2022-08-19T07:14:42;95156.47;;;21.79;85.33
9839;BME280;4958;48.150;11.506;2022-08-19T07:17:12;95159.31;;;21.67;88.31
9839;BME280;4958;48.150;11.506;2022-08-19T07:19:40;95152.78;;;21.69;87.25
9839;BME280;4958;48.150;11.506;2022-08-19T07:22:08;95144.66;;;21.71;88.02
9839;BME280;4958;48.150;11.506;2022-08-19T07:24:36;95140.75;;;21.79;87.97
9839;BME280;4958;48.150;11.506;2022-08-19T07:27:05;95129.50;;;21.83;87.19
9839;BME280;4958;48.150;11.506;2022-08-19T07:29:33;95122.19;;;21.90;86.93
9839;BME280;4958;48.150;11.506;2022-08-19T07:32:01;95118.78;;;21.95;86.34
9839;BME280;4958;48.150;11.506;2022-08-19T07:34:31;95116.50;;;22.09;85.57
9839;BME280;4958;48.150;11.506;2022-08-19T07:37:03;95120.41;;;22.16;85.80
9839;BME280;4958;48.150;11.506;2022-08-19T07:39:32;95123.59;;;22.28;84.90
9839;BME280;4958;48.150;11.506;2022-08-19T07:42:03;95126.47;;;22.27;85.78
9839;BME280;4958;48.150;11.506;2022-08-19T07:44:31;95133.03;;;22.29;85.75
9839;BME280;4958;48.150;11.506;2022-08-19T07:46:59;95128.84;;;22.28;85.11
9839;BME280;4958;48.150;11.506;2022-08-19T07:49:35;95134.09;;;22.28;83.52
9839;BME280;4958;48.150;11.506;2022-08-19T07:52:05;95146.41;;;22.28;84.08
9839;BME280;4958;48.150;11.506;2022-08-19T07:54:35;95149.28;;;22.26;84.45
9839;BME280;4958;48.150;11.506;2022-08-19T07:57:03;95154.81;;;22.25;83.82
9839;BME280;4958;48.150;11.506;2022-08-19T07:59:30;95151.91;;;22.21;83.55
9839;BME280;4958;48.150;11.506;2022-08-19T08:01:57;95149.78;;;22.13;83.30
9839;BME280;4958;48.150;11.506;2022-08-19T08:04:26;95153.47;;;22.17;82.97
9839;BME280;4958;48.150;11.506;2022-08-19T08:07:11;95151.88;;;22.16;83.46
9839;BME280;4958;48.150;11.506;2022-08-19T08:09:58;95147.94;;;22.14;83.61
9839;BME280;4958;48.150;11.506;2022-08-19T08:12:27;95151.09;;;22.16;83.38
9839;BME280;4958;48.150;11.506;2022-08-19T08:15:10;95151.63;;;22.08;83.54
9839;BME280;4958;48.150;11.506;2022-08-19T08:17:37;95156.34;;;22.16;83.17
9839;BME280;4958;48.150;11.506;2022-08-19T08:20:05;95159.50;;;22.18;82.94
9839;BME280;4958;48.150;11.506;2022-08-19T08:22:34;95165.00;;;22.16;83.10
9839;BME280;4958;48.150;11.506;2022-08-19T08:25:20;95163.16;;;22.17;83.10
9839;BME280;4958;48.150;11.506;2022-08-19T08:27:48;95156.88;;;22.18;83.03
9839;BME280;4958;48.150;11.506;2022-08-19T08:30:18;95159.50;;;22.18;83.08
9839;BME280;4958;48.150;11.506;2022-08-19T08:32:46;95161.34;;;22.12;84.01
9839;BME280;4958;48.150;11.506;2022-08-19T08:35:16;95163.69;;;22.14;83.63
9839;BME280;4958;48.150;11.506;2022-08-19T08:37:44;95168.41;;;22.12;83.20
9839;BME280;4958;48.150;11.506;2022-08-19T08:40:18;95173.13;;;22.15;82.85
9839;BME280;4958;48.150;11.506;2022-08-19T08:42:49;95177.31;;;22.16;83.63
9839;BME280;4958;48.150;11.506;2022-08-19T08:45:18;95174.97;;;22.14;83.72
9839;BME280;4958;48.150;11.506;2022-08-19T08:47:47;95172.88;;;22.16;83.15
9839;BME280;4958;48.150;11.506;2022-08-19T08:50:22;95183.09;;;22.18;82.47
9839;BME280;4958;48.150;11.506;2022-08-19T08:52:53;95182.56;;;22.16;82.55
9839;BME280;4958;48.150;11.506;2022-08-19T08:55:24;95192.81;;;22.12;82.69
9839;BME280;4958;48.150;11.506;2022-08-19T08:57:55;95193.31;;;22.09;83.41
9839;BME280;4958;48.150;11.506;2022-08-19T09:00:27;95190.16;;;22.07;83.72
9839;BME280;4958;48.150;11.506;2022-08-19T09:02:56;95196.44;;;22.01;84.17
9839;BME280;4958;48.150;11.506;2022-08-19T09:05:27;95193.56;;;22.02;83.88
9839;BME280;4958;48.150;11.506;2022-08-19T09:08:02;95199.34;;;22.04;83.36
9839;BME280;4958;48.150;11.506;2022-08-19T09:10:34;95202.22;;;22.08;84.30
9839;BME280;4958;48.150;11.506;2022-08-19T09:13:10;95196.13;;;21.97;85.50
9839;BME280;4958;48.150;11.506;2022-08-19T09:16:02;95196.91;;;21.98;86.27
9839;BME280;4958;48.150;11.506;2022-08-19T09:18:39;95192.16;;;21.85;87.36
9839;BME280;4958;48.150;11.506;2022-08-19T09:21:06;95195.81;;;21.84;87.84
9839;BME280;4958;48.150;11.506;2022-08-19T09:23:35;95190.06;;;21.87;88.27
9839;BME280;4958;48.150;11.506;2022-08-19T09:26:06;95184.31;;;21.90;89.25
9839;BME280;4958;48.150;11.506;2022-08-19T09:28:33;95195.81;;;21.84;89.39
9839;BME280;4958;48.150;11.506;2022-08-19T09:30:59;95186.66;;;21.86;89.51
9839;BME280;4958;48.150;11.506;2022-08-19T09:33:26;95189.03;;;21.93;89.44
9839;BME280;4958;48.150;11.506;2022-08-19T09:36:04;95190.88;;;21.97;89.79
9839;BME280;4958;48.150;11.506;2022-08-19T09:41:03;95197.75;;;22.03;91.66
9839;BME280;4958;48.150;11.506;2022-08-19T09:43:31;95200.28;;;21.88;92.91
9839;BME280;4958;48.150;11.506;2022-08-19T09:45:58;95194.50;;;21.86;92.27
9839;BME280;4958;48.150;11.506;2022-08-19T09:48:25;95192.72;;;21.92;91.53
9839;BME280;4958;48.150;11.506;2022-08-19T09:50:52;95192.97;;;21.90;92.01
9839;BME280;4958;48.150;11.506;2022-08-19T09:53:18;95193.97;;;21.84;92.08
9839;BME280;4958;48.150;11.506;2022-08-19T09:55:47;95197.66;;;21.83;91.99
9839;BME280;4958;48.150;11.506;2022-08-19T09:58:15;95191.88;;;21.81;93.27
9839;BME280;4958;48.150;11.506;2022-08-19T10:00:41;95189.84;;;21.93;92.93
9839;BME280;4958;48.150;11.506;2022-08-19T10:03:08;95198.47;;;21.99;93.28
9839;BME280;4958;48.150;11.506;2022-08-19T10:05:34;95201.69;;;22.06;93.21
9839;BME280;4958;48.150;11.506;2022-08-19T10:08:18;95201.69;;;22.06;91.72
9839;BME280;4958;48.150;11.506;2022-08-19T10:10:48;95209.53;;;22.01;91.21
9839;BME280;4958;48.150;11.506;2022-08-19T10:13:20;95212.06;;;21.86;92.22
9839;BME280;4958;48.150;11.506;2022-08-19T10:15:50;95210.19;;;21.71;93.45
9839;BME280;4958;48.150;11.506;2022-08-19T10:18:19;95211.50;;;21.74;94.61
9839;BME280;4958;48.150;11.506;2022-08-19T10:20:47;95199.47;;;21.83;95.37
9839;BME280;4958;48.150;11.506;2022-08-19T10:23:15;95196.38;;;21.91;93.56
9839;BME280;4958;48.150;11.506;2022-08-19T10:25:41;95182.53;;;22.00;96.74
9839;BME280;4958;48.150;11.506;2022-08-19T10:28:08;95186.78;;;22.12;95.24
9839;BME280;4958;48.150;11.506;2022-08-19T10:30:39;95196.47;;;22.16;93.14
9839;BME280;4958;48.150;11.506;2022-08-19T10:33:05;95197.56;;;22.35;93.21
9839;BME280;4958;48.150;11.506;2022-08-19T10:35:32;95201.03;;;22.51;90.92
9839;BME280;4958;48.150;11.506;2022-08-19T10:37:59;95196.31;;;22.68;88.28
9839;BME280;4958;48.150;11.506;2022-08-19T10:40:27;95189.53;;;22.88;86.79
9839;BME280;4958;48.150;11.506;2022-08-19T10:42:54;95186.09;;;23.07;87.35
9839;BME280;4958;48.150;11.506;2022-08-19T10:45:21;95189.75;;;23.27;86.13
9839;BME280;4958;48.150;11.506;2022-08-19T10:47:50;95191.81;;;23.30;83.66
9839;BME280;4958;48.150;11.506;2022-08-19T10:50:17;95187.34;;;23.46;84.31
9839;BME280;4958;48.150;11.506;2022-08-19T10:53:04;95190.50;;;23.58;81.50
9839;BME280;4958;48.150;11.506;2022-08-19T10:55:30;95188.91;;;23.62;83.99
9839;BME280;4958;48.150;11.506;2022-08-19T10:58:16;95183.41;;;23.53;84.70
9839;BME280;4958;48.150;11.506;2022-08-19T11:00:43;95187.09;;;23.47;85.95
9839;BME280;4958;48.150;11.506;2022-08-19T11:03:11;95188.16;;;23.31;83.67
9839;BME280;4958;48.150;11.506;2022-08-19T11:05:37;95191.06;;;23.24;85.25
9839;BME280;4958;48.150;11.506;2022-08-19T11:08:04;95185.56;;;23.11;88.44
9839;BME280;4958;48.150;11.506;2022-08-19T11:10:30;95181.91;;;23.06;86.31
9839;BME280;4958;48.150;11.506;2022-08-19T11:12:57;95182.16;;;23.05;86.67
9839;BME280;4958;48.150;11.506;2022-08-19T11:15:23;95184.25;;;23.03;85.87
9839;BME280;4958;48.150;11.506;2022-08-19T11:17:51;95182.69;;;22.92;86.84
9839;BME280;4958;48.150;11.506;2022-08-19T11:20:20;95181.63;;;22.93;85.35
9839;BME280;4958;48.150;11.506;2022-08-19T11:22:51;95169.81;;;22.90;83.70
9839;BME280;4958;48.150;11.506;2022-08-19T11:25:17;95167.19;;;23.00;83.97
9839;BME280;4958;48.150;11.506;2022-08-19T11:27:44;95170.34;;;22.97;84.90
9839;BME280;4958;48.150;11.506;2022-08-19T11:30:13;95173.47;;;23.15;84.13
9839;BME280;4958;48.150;11.506;2022-08-19T11:32:40;95175.56;;;23.13;83.04
9839;BME280;4958;48.150;11.506;2022-08-19T11:35:07;95171.09;;;23.13;81.96
9839;BME280;4958;48.150;11.506;2022-08-19T11:37:37;95176.06;;;23.40;82.38
9839;BME280;4958;48.150;11.506;2022-08-19T11:40:05;95172.03;;;23.68;80.78
9839;BME280;4958;48.150;11.506;2022-08-19T11:42:32;95179.44;;;23.66;78.26
9839;BME280;4958;48.150;11.506;2022-08-19T11:45:17;95177.06;;;23.64;78.33
9839;BME280;4958;48.150;11.506;2022-08-19T11:47:44;95170.78;;;23.60;80.42
9839;BME280;4958;48.150;11.506;2022-08-19T11:50:11;95177.63;;;23.46;79.91
9839;BME280;4958;48.150;11.506;2022-08-19T11:52:39;95180.53;;;23.45;79.59
9839;BME280;4958;48.150;11.506;2022-08-19T11:55:07;95184.25;;;23.23;79.28
9839;BME280;4958;48.150;11.506;2022-08-19T11:57:34;95186.88;;;23.13;78.95
9839;BME280;4958;48.150;11.506;2022-08-19T12:00:00;95190.28;;;23.14;80.16
9839;BME280;4958;48.150;11.506;2022-08-19T12:02:28;95192.16;;;23.08;80.72
9839;BME280;4958;48.150;11.506;2022-08-19T12:04:54;95190.03;;;23.05;81.50
9839;BME280;4958;48.150;11.506;2022-08-19T12:07:20;95198.72;;;23.00;80.78
9839;BME280;4958;48.150;11.506;2022-08-19T12:09:48;95199.22;;;22.77;81.43
9839;BME280;4958;48.150;11.506;2022-08-19T12:12:15;95202.06;;;22.55;81.50
9839;BME280;4958;48.150;11.506;2022-08-19T12:14:41;95194.97;;;22.46;82.18
9839;BME280;4958;48.150;11.506;2022-08-19T12:17:07;95198.91;;;22.48;82.37
9839;BME280;4958;48.150;11.506;2022-08-19T12:19:36;95197.63;;;22.51;82.16
9839;BME280;4958;48.150;11.506;2022-08-19T12:22:02;95203.38;;;22.53;82.52
9839;BME280;4958;48.150;11.506;2022-08-19T12:24:31;95209.41;;;22.58;81.76
9839;BME280;4958;48.150;11.506;2022-08-19T12:26:59;95203.66;;;22.71;80.96
9839;BME280;4958;48.150;11.506;2022-08-19T12:29:26;95207.09;;;22.82;81.05
9839;BME280;4958;48.150;11.506;2022-08-19T12:31:55;95213.16;;;22.88;80.01
9839;BME280;4958;48.150;11.506;2022-08-19T12:34:25;95204.50;;;22.87;80.97
9839;BME280;4958;48.150;11.506;2022-08-19T12:36:55;95205.53;;;23.01;80.24
9839;BME280;4958;48.150;11.506;2022-08-19T12:39:21;95213.41;;;23.22;79.10
9839;BME280;4958;48.150;11.506;2022-08-19T12:41:49;95211.00;;;23.30;79.20
9839;BME280;4958;48.150;11.506;2022-08-19T12:44:17;95210.22;;;23.30;79.22
9839;BME280;4958;48.150;11.506;2022-08-19T12:46:43;95203.91;;;23.41;78.42
9839;BME280;4958;48.150;11.506;2022-08-19T12:49:09;95209.94;;;23.36;77.42
9839;BME280;4958;48.150;11.506;2022-08-19T12:51:36;95217.28;;;23.50;76.57
9839;BME280;4958;48.150;11.506;2022-08-19T12:54:04;95218.09;;;23.55;75.67
9839;BME280;4958;48.150;11.506;2022-08-19T12:56:32;95222.84;;;23.38;75.28
9839;BME280;4958;48.150;11.506;2022-08-19T12:59:00;95221.25;;;23.32;74.73
9839;BME280;4958;48.150;11.506;2022-08-19T13:01:29;95216.28;;;23.25;74.92
9839;BME280;4958;48.150;11.506;2022-08-19T13:03:58;95212.59;;;23.21;75.46
9839;BME280;4958;48.150;11.506;2022-08-19T13:06:24;95221.50;;;23.40;75.10
9839;BME280;4958;48.150;11.506;2022-08-19T13:08:51;95213.88;;;23.59;76.01
9839;BME280;4958;48.150;11.506;2022-08-19T13:11:19;95218.56;;;23.72;73.36
9839;BME280;4958;48.150;11.506;2022-08-19T13:13:50;95214.56;;;23.95;72.69
9839;BME280;4958;48.150;11.506;2022-08-19T13:16:17;95208.69;;;24.08;73.14
9839;BME280;4958;48.150;11.506;2022-08-19T13:18:46;95213.69;;;24.10;71.89
9839;BME280;4958;48.150;11.506;2022-08-19T13:21:13;95205.25;;;24.18;71.96